createdAt,value
2018-07-17T00:00:29.831Z,12.67
2018-07-17T00:01:29.696Z,12.74
2018-07-17T00:02:29.690Z,12.77
2018-07-17T00:03:29.625Z,12.86
2018-07-17T00:04:29.597Z,12.82
2018-07-17T00:05:29.565Z,12.71
2018-07-17T00:06:29.523Z,12.62
2018-07-17T00:07:29.491Z,12.62
2018-07-17T00:08:29.451Z,12.64
2018-07-17T00:09:29.461Z,12.71
2018-07-17T00:10:29.410Z,12.65
2018-07-17T00:11:29.343Z,12.64
2018-07-17T00:12:29.314Z,12.65
2018-07-17T00:13:29.267Z,12.60
2018-07-17T00:14:29.229Z,12.47
2018-07-17T00:15:29.187Z,12.54
2018-07-17T00:16:29.270Z,12.52
2018-07-17T00:17:29.120Z,12.59
2018-07-17T00:18:29.084Z,12.50
2018-07-17T00:19:29.047Z,12.60
2018-07-17T00:20:29.008Z,12.62
2018-07-17T00:21:29.012Z,12.65
2018-07-17T00:22:28.998Z,12.65
2018-07-17T00:23:28.912Z,12.46
2018-07-17T00:24:28.888Z,12.38
2018-07-17T00:25:28.843Z,12.42
2018-07-17T00:26:28.837Z,12.54
2018-07-17T00:27:28.771Z,12.64
2018-07-17T00:28:28.747Z,12.67
2018-07-17T00:29:28.704Z,12.62
2018-07-17T00:30:28.651Z,12.62
2018-07-17T00:31:28.747Z,12.65
2018-07-17T00:32:28.598Z,12.50
2018-07-17T00:33:28.624Z,12.50
2018-07-17T00:34:28.528Z,12.38
2018-07-17T00:35:28.509Z,12.41
2018-07-17T00:36:28.455Z,12.38
2018-07-17T00:37:28.394Z,12.41
2018-07-17T00:38:28.360Z,12.50
2018-07-17T00:39:28.315Z,12.49
2018-07-17T00:40:28.285Z,12.52
2018-07-17T00:41:28.250Z,12.53
2018-07-17T00:42:28.279Z,12.50
2018-07-17T00:43:28.195Z,12.50
2018-07-17T00:44:28.148Z,12.53
2018-07-17T00:45:28.111Z,12.39
2018-07-17T00:46:28.066Z,12.41
2018-07-17T00:47:28.041Z,12.31
2018-07-17T00:48:27.989Z,12.28
2018-07-17T00:49:27.973Z,12.24
2018-07-17T00:50:27.931Z,12.21
2018-07-17T00:51:27.894Z,12.16
2018-07-17T00:52:27.850Z,12.24
2018-07-17T00:53:27.813Z,12.29
2018-07-17T00:54:27.776Z,12.27
2018-07-17T00:55:27.734Z,12.37
2018-07-17T00:56:27.706Z,12.39
2018-07-17T00:57:27.688Z,12.35
2018-07-17T00:58:27.634Z,12.24
2018-07-17T00:59:27.615Z,12.24
2018-07-17T01:00:27.598Z,12.19
2018-07-17T01:01:27.518Z,12.31
2018-07-17T01:02:27.482Z,12.27
2018-07-17T01:03:27.449Z,12.21
2018-07-17T01:04:27.468Z,12.24
2018-07-17T01:07:00.333Z,12.04
2018-07-17T01:07:59.312Z,11.94
2018-07-17T01:09:53.181Z,11.88
2018-07-17T01:10:52.254Z,11.75
2018-07-17T01:12:45.707Z,11.83
2018-07-17T01:13:45.315Z,11.75
2018-07-17T01:15:39.184Z,12.05
2018-07-17T01:16:39.093Z,12.21
2018-07-17T01:18:31.692Z,12.23
2018-07-17T01:19:31.227Z,12.02
2018-07-17T01:21:25.175Z,12.05
2018-07-17T01:22:24.465Z,11.98
2018-07-17T01:24:17.864Z,11.95
2018-07-17T01:25:17.645Z,11.91
2018-07-17T01:27:10.648Z,12.05
2018-07-17T01:28:10.247Z,12.05
2018-07-17T01:30:05.545Z,12.04
2018-07-17T01:31:05.465Z,12.02
2018-07-17T01:32:58.084Z,12.13
2018-07-17T01:33:57.725Z,12.16
2018-07-17T01:35:51.145Z,12.24
2018-07-17T01:36:50.700Z,12.13
2018-07-17T01:38:43.881Z,11.96
2018-07-17T01:39:43.565Z,11.90
2018-07-17T01:41:36.982Z,11.79
2018-07-17T01:42:36.632Z,11.76
2018-07-17T01:44:29.909Z,12.02
2018-07-17T01:45:29.526Z,11.99
2018-07-17T01:47:24.959Z,12.02
2018-07-17T01:48:24.007Z,12.02
2018-07-17T01:50:17.391Z,11.88
2018-07-17T01:51:16.940Z,11.91
2018-07-17T01:53:10.398Z,12.01
2018-07-17T01:54:09.967Z,12.04
2018-07-17T01:56:03.292Z,11.86
2018-07-17T01:57:02.859Z,11.73
2018-07-17T01:58:56.284Z,11.75
2018-07-17T01:59:55.854Z,11.65
2018-07-17T02:02:48.756Z,11.57
2018-07-17T02:04:42.730Z,11.46
2018-07-17T02:05:41.665Z,11.43
2018-07-17T02:07:36.626Z,11.42
2018-07-17T02:08:36.205Z,11.40
2018-07-17T02:10:30.144Z,11.44
2018-07-17T02:11:29.208Z,11.44
2018-07-17T02:13:22.485Z,11.70
2018-07-17T02:14:22.030Z,11.62
2018-07-17T02:16:15.736Z,11.70
2018-07-17T02:17:15.241Z,11.72
2018-07-17T02:19:08.481Z,11.88
2018-07-17T02:20:08.780Z,11.82
2018-07-17T02:22:01.941Z,11.72
2018-07-17T02:23:01.169Z,11.88
2018-07-17T02:24:54.422Z,11.62
2018-07-17T02:25:53.948Z,11.57
2018-07-17T02:27:48.916Z,11.51
2018-07-17T02:28:48.590Z,11.51
2018-07-17T02:30:41.767Z,11.62
2018-07-17T02:31:41.460Z,11.69
2018-07-17T02:33:34.801Z,11.58
2018-07-17T02:34:35.089Z,11.54
2018-07-17T02:36:27.662Z,11.67
2018-07-17T02:37:27.310Z,11.57
2018-07-17T02:39:21.238Z,11.40
2018-07-17T02:40:20.802Z,11.44
2018-07-17T02:42:14.259Z,11.24
2018-07-17T02:43:13.799Z,11.37
2018-07-17T02:45:07.191Z,11.42
2018-07-17T02:46:06.869Z,11.43
2018-07-17T02:48:00.125Z,11.39
2018-07-17T02:49:00.479Z,11.28
2018-07-17T02:50:53.182Z,11.36
2018-07-17T02:51:52.735Z,11.36
2018-07-17T02:53:46.097Z,11.43
2018-07-17T02:54:45.592Z,11.42
2018-07-17T02:56:39.032Z,11.40
2018-07-17T02:57:39.339Z,11.40
2018-07-17T02:59:32.532Z,11.47
2018-07-17T03:00:32.179Z,11.57
2018-07-17T03:02:25.526Z,11.61
2018-07-17T03:03:25.179Z,11.60
2018-07-17T03:05:18.600Z,11.49
2018-07-17T03:06:18.195Z,11.46
2018-07-17T03:08:11.605Z,11.47
2018-07-17T03:09:11.015Z,11.37
2018-07-17T03:11:04.528Z,11.28
2018-07-17T03:12:04.081Z,11.42
2018-07-17T03:13:57.403Z,11.25
2018-07-17T03:14:57.084Z,11.14
2018-07-17T03:16:50.402Z,11.21
2018-07-17T03:17:49.934Z,11.21
2018-07-17T03:19:43.317Z,11.22
2018-07-17T03:20:42.924Z,11.28
2018-07-17T03:22:37.833Z,11.25
2018-07-17T03:23:37.558Z,11.19
2018-07-17T03:25:30.885Z,11.14
2018-07-17T03:26:30.373Z,10.97
2018-07-17T03:28:23.801Z,10.89
2018-07-17T03:29:23.417Z,11.14
2018-07-17T03:31:16.704Z,11.25
2018-07-17T03:32:16.251Z,11.28
2018-07-17T03:34:09.674Z,11.32
2018-07-17T03:35:09.344Z,11.24
2018-07-17T03:37:02.669Z,11.32
2018-07-17T03:38:02.242Z,11.40
2018-07-17T03:39:55.643Z,11.35
2018-07-17T03:40:55.519Z,11.37
2018-07-17T03:42:50.115Z,11.27
2018-07-17T03:43:49.636Z,11.18
2018-07-17T03:45:43.013Z,11.35
2018-07-17T03:46:42.648Z,11.29
2018-07-17T03:48:35.981Z,11.29
2018-07-17T03:49:35.567Z,11.46
2018-07-17T03:51:29.388Z,11.46
2018-07-17T03:52:28.484Z,11.46
2018-07-17T03:54:22.373Z,11.42
2018-07-17T03:55:21.486Z,11.47
2018-07-17T03:57:15.395Z,11.43
2018-07-17T03:58:14.389Z,11.44
2018-07-17T04:00:07.815Z,11.51
2018-07-17T04:01:07.432Z,11.54
2018-07-17T04:03:02.823Z,11.61
2018-07-17T04:04:02.085Z,11.64
2018-07-17T04:05:55.679Z,11.65
2018-07-17T04:06:54.887Z,11.58
2018-07-17T04:08:48.251Z,11.52
2018-07-17T04:09:47.932Z,11.58
2018-07-17T04:11:41.136Z,12.16
2018-07-17T04:12:40.730Z,12.56
2018-07-17T04:14:34.224Z,13.14
2018-07-17T04:15:33.711Z,13.39
2018-07-17T04:17:27.369Z,13.99
2018-07-17T04:18:26.872Z,14.27
2018-07-17T04:20:20.798Z,14.39
2018-07-17T04:21:20.410Z,14.57
2018-07-17T04:23:14.384Z,14.91
2018-07-17T04:24:14.765Z,15.06
2018-07-17T04:26:07.364Z,15.16
2018-07-17T04:27:07.265Z,15.07
2018-07-17T04:29:00.893Z,14.94
2018-07-17T04:30:00.892Z,15.06
2018-07-17T04:31:53.380Z,14.99
2018-07-17T04:32:52.985Z,15.03
2018-07-17T04:34:46.912Z,14.99
2018-07-17T04:35:46.649Z,15.31
2018-07-17T04:37:41.305Z,15.96
2018-07-17T04:38:41.320Z,16.39
2018-07-17T04:40:33.836Z,16.78
2018-07-17T04:41:33.439Z,17.06
2018-07-17T04:43:27.822Z,17.28
2018-07-17T04:44:26.447Z,17.34
2018-07-17T04:46:19.894Z,17.74
2018-07-17T04:47:19.460Z,17.84
2018-07-17T04:49:12.878Z,18.05
2018-07-17T04:50:12.481Z,18.02
2018-07-17T04:52:05.895Z,17.97
2018-07-17T04:53:05.298Z,18.26
2018-07-17T04:54:59.402Z,18.27
2018-07-17T04:55:58.505Z,18.47
2018-07-17T04:57:51.976Z,18.35
2018-07-17T04:58:52.370Z,18.26
2018-07-17T05:00:44.903Z,18.37
2018-07-17T05:01:44.627Z,18.23
2018-07-17T05:04:37.600Z,19.16
2018-07-17T05:06:31.470Z,19.50
2018-07-17T05:07:31.172Z,19.66
2018-07-17T05:09:25.627Z,20.06
2018-07-17T05:10:24.463Z,20.47
2018-07-17T05:12:17.610Z,20.73
2018-07-17T05:13:17.225Z,20.95
2018-07-17T05:15:10.709Z,21.14
2018-07-17T05:16:10.297Z,21.54
2018-07-17T05:18:05.176Z,21.64
2018-07-17T05:19:05.457Z,21.67
2018-07-17T05:21:01.714Z,21.80
2018-07-17T05:22:01.660Z,21.86
2018-07-17T05:23:54.739Z,21.50
2018-07-17T05:24:54.348Z,21.77
2018-07-17T05:26:47.881Z,22.17
2018-07-17T05:27:47.450Z,22.39
2018-07-17T05:29:40.901Z,23.04
2018-07-17T05:30:40.445Z,23.19
2018-07-17T05:32:33.982Z,23.65
2018-07-17T05:33:33.857Z,23.83
2018-07-17T05:35:27.532Z,24.05
2018-07-17T05:36:27.126Z,23.72
2018-07-17T05:38:20.587Z,22.49
2018-07-17T05:39:20.170Z,21.92
2018-07-17T05:41:13.607Z,20.73
2018-07-17T05:42:13.567Z,20.35
2018-07-17T05:44:06.769Z,19.88
2018-07-17T05:45:06.589Z,19.71
2018-07-17T05:46:59.737Z,19.77
2018-07-17T05:48:03.272Z,19.80
2018-07-17T05:50:35.351Z,19.58
2018-07-17T05:51:35.185Z,19.36
2018-07-17T05:53:29.786Z,19.11
2018-07-17T05:54:29.735Z,19.11
2018-07-17T05:56:23.371Z,19.11
2018-07-17T05:57:23.261Z,19.04
2018-07-17T05:59:16.380Z,18.98
2018-07-17T06:00:16.299Z,19.00
2018-07-17T06:02:09.468Z,19.28
2018-07-17T06:03:09.383Z,19.29
2018-07-17T06:05:03.978Z,19.39
2018-07-17T06:06:03.921Z,19.29
2018-07-17T06:07:57.008Z,19.37
2018-07-17T06:08:56.571Z,19.33
2018-07-17T06:10:51.450Z,19.47
2018-07-17T06:11:51.128Z,19.62
2018-07-17T06:13:44.517Z,19.81
2018-07-17T06:14:44.028Z,20.26
2018-07-17T06:16:37.543Z,20.74
2018-07-17T06:17:37.559Z,20.52
2018-07-17T06:19:30.682Z,20.10
2018-07-17T06:20:30.272Z,20.03
2018-07-17T06:22:23.634Z,19.99
2018-07-17T06:23:23.334Z,20.10
2018-07-17T06:25:16.763Z,20.20
2018-07-17T06:26:16.323Z,20.55
2018-07-17T06:28:09.751Z,20.64
2018-07-17T06:29:09.804Z,20.85
2018-07-17T06:31:03.352Z,21.32
2018-07-17T06:32:03.067Z,21.42
2018-07-17T06:33:56.485Z,21.53
2018-07-17T06:34:56.388Z,21.47
2018-07-17T06:36:49.597Z,21.43
2018-07-17T06:37:49.375Z,21.43
2018-07-17T06:39:44.030Z,21.32
2018-07-17T06:40:43.540Z,21.27
2018-07-17T06:42:37.114Z,21.32
2018-07-17T06:43:37.034Z,21.40
2018-07-17T06:45:30.084Z,21.44
2018-07-17T06:46:29.684Z,21.47
2018-07-17T06:48:23.593Z,21.49
2018-07-17T06:49:23.894Z,21.62
2018-07-17T06:51:16.686Z,21.91
2018-07-17T06:52:16.239Z,22.07
2018-07-17T06:54:09.748Z,22.36
2018-07-17T06:55:09.602Z,22.47
2018-07-17T06:56:10.120Z,22.58
2018-07-17T06:57:09.247Z,22.67
2018-07-17T06:58:09.510Z,22.76
2018-07-17T06:59:09.496Z,22.94
2018-07-17T07:00:09.489Z,23.00
2018-07-17T07:01:09.440Z,23.20
2018-07-17T07:02:09.381Z,23.68
2018-07-17T07:03:09.367Z,24.42
2018-07-17T07:04:09.008Z,25.20
2018-07-17T07:05:08.952Z,25.97
2018-07-17T07:06:08.951Z,26.80
2018-07-17T07:07:09.370Z,27.29
2018-07-17T07:08:09.217Z,28.06
2018-07-17T07:09:08.868Z,28.95
2018-07-17T07:10:09.244Z,28.86
2018-07-17T07:11:09.202Z,28.93
2018-07-17T07:12:09.128Z,28.95
2018-07-17T07:13:09.100Z,29.05
2018-07-17T07:14:09.095Z,28.96
2018-07-17T07:15:09.006Z,28.95
2018-07-17T07:16:09.051Z,28.67
2018-07-17T07:17:08.974Z,28.81
2018-07-17T07:18:08.982Z,28.54
2018-07-17T07:19:08.938Z,28.41
2018-07-17T07:20:08.598Z,28.46
2018-07-17T07:21:08.903Z,28.73
2018-07-17T07:22:08.898Z,28.86
2018-07-17T07:23:08.832Z,29.00
2018-07-17T07:24:09.385Z,29.16
2018-07-17T07:25:08.841Z,29.21
2018-07-17T07:26:08.815Z,29.61
2018-07-17T07:27:08.810Z,29.86
2018-07-17T07:28:08.778Z,30.29
2018-07-17T07:29:08.655Z,30.29
2018-07-17T07:30:08.712Z,30.20
2018-07-17T07:31:08.400Z,30.45
2018-07-17T07:32:08.653Z,30.84
2018-07-17T07:33:08.637Z,30.35
2018-07-17T07:34:08.576Z,30.19
2018-07-17T07:35:08.604Z,30.79
2018-07-17T07:36:08.577Z,30.57
2018-07-17T07:37:08.555Z,30.58
2018-07-17T07:38:08.118Z,30.17
2018-07-17T07:39:08.078Z,30.55
2018-07-17T07:40:08.065Z,30.10
2018-07-17T07:41:08.054Z,30.05
2018-07-17T07:42:08.019Z,30.00
2018-07-17T07:43:08.003Z,30.07
2018-07-17T07:44:07.981Z,30.26
2018-07-17T07:45:07.973Z,30.47
2018-07-17T07:46:07.941Z,30.29
2018-07-17T07:47:07.921Z,30.32
2018-07-17T07:48:07.901Z,30.61
2018-07-17T07:49:07.941Z,30.98
2018-07-17T07:50:07.870Z,31.06
2018-07-17T07:51:07.845Z,30.99
2018-07-17T07:52:07.832Z,31.50
2018-07-17T07:53:07.803Z,31.39
2018-07-17T07:54:07.790Z,31.26
2018-07-17T07:55:07.783Z,31.34
2018-07-17T07:56:07.751Z,31.85
2018-07-17T07:57:07.742Z,32.10
2018-07-17T07:58:07.714Z,31.93
2018-07-17T07:59:07.714Z,32.18
2018-07-17T08:00:07.675Z,31.78
2018-07-17T08:01:07.679Z,31.80
2018-07-17T08:02:07.645Z,31.53
2018-07-17T08:03:07.625Z,31.57
2018-07-17T08:04:07.622Z,31.44
2018-07-17T08:05:07.611Z,31.61
2018-07-17T08:06:07.567Z,32.11
2018-07-17T08:07:07.561Z,32.63
2018-07-17T08:08:07.537Z,32.47
2018-07-17T08:09:07.523Z,32.72
2018-07-17T08:10:07.493Z,32.48
2018-07-17T08:11:07.487Z,33.03
2018-07-17T08:12:07.512Z,32.23
2018-07-17T08:13:07.443Z,32.65
2018-07-17T08:14:07.422Z,33.06
2018-07-17T08:15:07.423Z,32.99
2018-07-17T08:16:07.398Z,32.94
2018-07-17T08:17:07.393Z,33.26
2018-07-17T08:18:07.363Z,32.81
2018-07-17T08:19:07.351Z,32.47
2018-07-17T08:20:07.354Z,31.80
2018-07-17T08:21:07.313Z,31.65
2018-07-17T08:22:07.297Z,32.11
2018-07-17T08:23:07.274Z,32.75
2018-07-17T08:24:07.258Z,32.50
2018-07-17T08:25:07.252Z,32.78
2018-07-17T08:26:07.225Z,32.77
2018-07-17T08:27:07.204Z,32.35
2018-07-17T08:28:07.203Z,32.44
2018-07-17T08:29:07.181Z,32.84
2018-07-17T08:30:07.159Z,32.85
2018-07-17T08:31:07.149Z,32.78
2018-07-17T08:32:07.124Z,33.09
2018-07-17T08:33:07.115Z,32.81
2018-07-17T08:34:07.093Z,32.96
2018-07-17T08:35:07.081Z,33.28
2018-07-17T08:36:07.070Z,33.69
2018-07-17T08:37:07.057Z,34.17
2018-07-17T08:38:07.030Z,33.81
2018-07-17T08:39:07.015Z,33.34
2018-07-17T08:40:06.997Z,32.93
2018-07-17T08:41:06.976Z,32.77
2018-07-17T08:42:06.976Z,33.26
2018-07-17T08:43:06.939Z,33.32
2018-07-17T08:44:06.934Z,33.01
2018-07-17T08:45:06.913Z,32.97
2018-07-17T08:46:06.895Z,33.57
2018-07-17T08:47:06.883Z,33.93
2018-07-17T08:48:06.858Z,34.64
2018-07-17T08:49:06.879Z,34.89
2018-07-17T08:50:06.830Z,34.19
2018-07-17T08:51:06.814Z,33.44
2018-07-17T08:52:06.790Z,33.32
2018-07-17T08:53:06.787Z,33.44
2018-07-17T08:54:06.783Z,33.26
2018-07-17T08:55:06.759Z,33.39
2018-07-17T08:56:06.723Z,33.06
2018-07-17T08:57:06.739Z,32.93
2018-07-17T08:58:06.694Z,33.44
2018-07-17T08:59:06.686Z,33.60
2018-07-17T09:00:06.669Z,33.26
2018-07-17T09:01:06.660Z,32.81
2018-07-17T09:02:06.645Z,32.66
2018-07-17T09:03:06.632Z,33.18
2018-07-17T09:04:06.606Z,33.68
2018-07-17T09:05:06.588Z,33.22
2018-07-17T09:06:06.576Z,32.77
2018-07-17T09:07:06.566Z,32.81
2018-07-17T09:08:06.546Z,33.32
2018-07-17T09:09:06.526Z,33.72
2018-07-17T09:10:06.506Z,33.57
2018-07-17T09:11:06.508Z,33.01
2018-07-17T09:12:06.474Z,32.87
2018-07-17T09:13:06.494Z,32.96
2018-07-17T09:14:06.437Z,33.09
2018-07-17T09:15:06.464Z,32.88
2018-07-17T09:16:06.409Z,32.78
2018-07-17T09:17:06.400Z,32.29
2018-07-17T09:18:06.413Z,32.43
2018-07-17T09:19:06.364Z,32.74
2018-07-17T09:20:06.352Z,32.35
2018-07-17T09:21:06.342Z,32.85
2018-07-17T09:22:06.324Z,33.28
2018-07-17T09:23:06.297Z,33.34
2018-07-17T09:24:06.290Z,33.28
2018-07-17T09:25:06.278Z,33.04
2018-07-17T09:26:06.262Z,33.49
2018-07-17T09:27:06.233Z,32.96
2018-07-17T09:28:06.236Z,32.88
2018-07-17T09:29:06.201Z,33.35
2018-07-17T09:30:06.188Z,33.53
2018-07-17T09:31:06.188Z,33.54
2018-07-17T09:32:06.145Z,33.98
2018-07-17T09:33:06.158Z,33.95
2018-07-17T09:34:06.106Z,32.37
2018-07-17T09:35:06.138Z,31.36
2018-07-17T09:36:06.085Z,31.12
2018-07-17T09:37:06.066Z,31.50
2018-07-17T09:38:06.045Z,31.96
2018-07-17T09:39:06.041Z,32.25
2018-07-17T09:40:06.026Z,32.62
2018-07-17T09:41:05.990Z,31.73
2018-07-17T09:42:05.979Z,31.09
2018-07-17T09:43:05.964Z,30.54
2018-07-17T09:44:05.951Z,31.56
2018-07-17T09:45:05.923Z,32.82
2018-07-17T09:46:05.899Z,33.18
2018-07-17T09:47:05.906Z,33.45
2018-07-17T09:48:05.887Z,33.69
2018-07-17T09:49:05.854Z,32.35
2018-07-17T09:50:05.844Z,31.32
2018-07-17T09:51:05.824Z,30.46
2018-07-17T09:52:05.847Z,29.53
2018-07-17T09:53:05.785Z,30.61
2018-07-17T09:54:05.765Z,31.47
2018-07-17T09:55:05.755Z,32.41
2018-07-17T09:56:05.727Z,33.21
2018-07-17T09:57:05.722Z,33.49
2018-07-17T09:58:05.693Z,33.94
2018-07-17T09:59:05.669Z,33.76
2018-07-17T10:00:05.661Z,32.82
2018-07-17T10:01:05.633Z,32.06
2018-07-17T10:02:05.616Z,31.48
2018-07-17T10:03:05.634Z,30.77
2018-07-17T10:04:05.596Z,30.27
2018-07-17T10:05:05.569Z,30.04
2018-07-17T10:06:05.544Z,30.70
2018-07-17T10:07:05.540Z,30.31
2018-07-17T10:08:05.512Z,30.04
2018-07-17T10:09:05.496Z,29.51
2018-07-17T10:10:05.466Z,29.53
2018-07-17T10:11:05.455Z,29.26
2018-07-17T10:12:05.433Z,29.24
2018-07-17T10:13:05.415Z,29.30
2018-07-17T10:14:05.400Z,29.41
2018-07-17T10:15:05.370Z,30.43
2018-07-17T10:16:05.345Z,30.80
2018-07-17T10:17:05.330Z,31.43
2018-07-17T10:18:05.321Z,32.14
2018-07-17T10:19:05.336Z,32.88
2018-07-17T10:20:05.377Z,33.09
2018-07-17T10:21:05.255Z,33.14
2018-07-17T10:22:05.245Z,33.29
2018-07-17T10:23:05.227Z,33.16
2018-07-17T10:24:05.192Z,32.25
2018-07-17T10:25:05.174Z,32.40
2018-07-17T10:26:05.138Z,33.39
2018-07-17T10:27:05.148Z,33.78
2018-07-17T10:28:05.114Z,32.94
2018-07-17T10:29:05.092Z,32.25
2018-07-17T10:30:05.076Z,32.65
2018-07-17T10:31:05.046Z,32.67
2018-07-17T10:32:05.104Z,33.06
2018-07-17T10:33:05.026Z,33.22
2018-07-17T10:34:04.990Z,33.12
2018-07-17T10:35:04.983Z,33.29
2018-07-17T10:36:04.976Z,33.31
2018-07-17T10:37:04.936Z,34.00
2018-07-17T10:38:04.917Z,34.35
2018-07-17T10:39:04.919Z,34.19
2018-07-17T10:40:04.890Z,34.24
2018-07-17T10:41:04.924Z,34.25
2018-07-17T10:42:04.867Z,34.28
2018-07-17T10:43:04.829Z,34.25
2018-07-17T10:44:04.843Z,34.44
2018-07-17T10:45:04.792Z,34.28
2018-07-17T10:46:04.780Z,34.54
2018-07-17T10:47:04.769Z,34.65
2018-07-17T10:48:04.737Z,34.70
2018-07-17T10:49:04.724Z,34.28
2018-07-17T10:50:04.714Z,34.02
2018-07-17T10:51:04.675Z,34.32
2018-07-17T10:52:04.657Z,34.09
2018-07-17T10:53:04.628Z,34.02
2018-07-17T10:54:04.632Z,33.72
2018-07-17T10:55:04.647Z,33.88
2018-07-17T10:56:04.595Z,34.16
2018-07-17T10:57:04.603Z,33.93
2018-07-17T10:58:04.580Z,33.78
2018-07-17T10:59:04.539Z,33.54
2018-07-17T11:00:04.552Z,33.60
2018-07-17T11:01:04.566Z,33.53
2018-07-17T11:02:04.483Z,33.15
2018-07-17T11:03:04.481Z,33.29
2018-07-17T11:04:04.444Z,32.96
2018-07-17T11:05:04.423Z,33.42
2018-07-17T11:06:04.406Z,33.42
2018-07-17T11:07:04.385Z,33.75
2018-07-17T11:08:04.404Z,34.02
2018-07-17T11:09:04.416Z,34.54
2018-07-17T11:10:04.351Z,33.87
2018-07-17T11:11:04.382Z,33.81
2018-07-17T11:12:04.319Z,33.91
2018-07-17T11:13:04.284Z,32.87
2018-07-17T11:14:04.273Z,32.48
2018-07-17T11:15:04.238Z,31.43
2018-07-17T11:16:04.238Z,30.89
2018-07-17T11:17:04.214Z,30.72
2018-07-17T11:18:04.218Z,30.47
2018-07-17T11:19:04.185Z,30.26
2018-07-17T11:20:04.140Z,30.72
2018-07-17T11:21:04.145Z,31.32
2018-07-17T11:22:04.121Z,32.03
2018-07-17T11:23:04.101Z,32.43
2018-07-17T11:24:04.084Z,32.75
2018-07-17T11:25:04.071Z,32.77
2018-07-17T11:26:04.061Z,32.60
2018-07-17T11:27:04.056Z,31.50
2018-07-17T11:28:04.026Z,31.10
2018-07-17T11:29:03.987Z,30.80
2018-07-17T11:30:03.972Z,30.16
2018-07-17T11:31:04.010Z,29.70
2018-07-17T11:32:04.040Z,29.23
2018-07-17T11:33:03.916Z,29.15
2018-07-17T11:34:03.907Z,29.24
2018-07-17T11:35:03.874Z,30.22
2018-07-17T11:36:03.876Z,30.79
2018-07-17T11:37:03.827Z,31.38
2018-07-17T11:38:03.822Z,31.92
2018-07-17T11:39:03.794Z,32.29
2018-07-17T11:40:03.791Z,31.57
2018-07-17T11:41:03.768Z,31.39
2018-07-17T11:42:03.735Z,30.86
2018-07-17T11:43:03.738Z,31.46
2018-07-17T11:44:03.696Z,32.04
2018-07-17T11:45:03.669Z,32.67
2018-07-17T11:46:03.671Z,32.77
2018-07-17T11:47:03.680Z,32.22
2018-07-17T11:48:03.627Z,32.63
2018-07-17T11:49:03.607Z,33.09
2018-07-17T11:50:03.595Z,33.38
2018-07-17T11:51:03.554Z,33.69
2018-07-17T11:52:03.564Z,33.54
2018-07-17T11:53:03.542Z,32.63
2018-07-17T11:54:03.501Z,32.37
2018-07-17T11:55:03.482Z,32.70
2018-07-17T11:56:03.463Z,32.45
2018-07-17T11:57:03.431Z,32.55
2018-07-17T11:58:03.415Z,32.37
2018-07-17T11:59:03.400Z,32.37
2018-07-17T12:00:03.463Z,33.00
2018-07-17T12:01:04.145Z,33.41
2018-07-17T12:02:03.345Z,33.38
2018-07-17T12:03:03.319Z,33.57
2018-07-17T12:04:03.305Z,32.79
2018-07-17T12:05:03.285Z,32.78
2018-07-17T12:06:03.266Z,33.00
2018-07-17T12:07:03.228Z,33.09
2018-07-17T12:08:03.214Z,33.26
2018-07-17T12:09:03.190Z,33.73
2018-07-17T12:10:03.184Z,33.34
2018-07-17T12:11:03.159Z,33.28
2018-07-17T12:12:03.145Z,33.34
2018-07-17T12:13:03.211Z,33.42
2018-07-17T12:14:03.099Z,33.35
2018-07-17T12:15:03.177Z,32.89
2018-07-17T12:16:03.100Z,32.56
2018-07-17T12:17:03.052Z,32.40
2018-07-17T12:18:03.014Z,31.99
2018-07-17T12:19:03.003Z,32.03
2018-07-17T12:20:03.138Z,32.23
2018-07-17T12:21:02.963Z,32.22
2018-07-17T12:22:02.971Z,32.25
2018-07-17T12:23:02.933Z,31.53
2018-07-17T12:24:02.922Z,31.26
2018-07-17T12:25:02.901Z,30.88
2018-07-17T12:26:02.896Z,30.75
2018-07-17T12:27:02.861Z,30.60
2018-07-17T12:28:02.863Z,30.47
2018-07-17T12:29:02.818Z,31.13
2018-07-17T12:30:02.787Z,32.00
2018-07-17T12:31:02.797Z,32.40
2018-07-17T12:32:02.761Z,32.94
2018-07-17T12:33:02.752Z,33.15
2018-07-17T12:34:02.715Z,33.31
2018-07-17T12:35:02.728Z,33.49
2018-07-17T12:36:02.686Z,33.76
2018-07-17T12:37:02.667Z,33.88
2018-07-17T12:38:02.642Z,33.79
2018-07-17T12:39:02.615Z,33.44
2018-07-17T12:40:02.636Z,33.54
2018-07-17T12:41:02.589Z,33.49
2018-07-17T12:42:02.570Z,33.18
2018-07-17T12:43:02.580Z,32.93
2018-07-17T12:44:02.532Z,32.23
2018-07-17T12:45:02.506Z,31.57
2018-07-17T12:46:02.485Z,31.29
2018-07-17T12:47:02.451Z,30.70
2018-07-17T12:48:02.458Z,30.47
2018-07-17T12:49:02.464Z,30.26
2018-07-17T12:50:02.458Z,30.58
2018-07-17T12:51:02.401Z,31.28
2018-07-17T12:52:02.374Z,31.75
2018-07-17T12:53:02.352Z,32.03
2018-07-17T12:54:02.352Z,32.19
2018-07-17T12:55:02.324Z,32.43
2018-07-17T12:56:02.304Z,32.66
2018-07-17T12:57:02.283Z,32.82
2018-07-17T12:58:02.262Z,32.92
2018-07-17T12:59:02.283Z,33.18
2018-07-17T13:00:02.215Z,32.81
2018-07-17T13:01:02.233Z,32.57
2018-07-17T13:02:02.166Z,32.99
2018-07-17T13:03:02.151Z,32.94
2018-07-17T13:04:02.147Z,33.28
2018-07-17T13:05:02.125Z,33.68
2018-07-17T13:06:02.105Z,33.68
2018-07-17T13:07:02.106Z,33.76
2018-07-17T13:08:02.072Z,33.65
2018-07-17T13:09:02.059Z,33.94
2018-07-17T13:10:02.021Z,33.37
2018-07-17T13:11:02.001Z,32.85
2018-07-17T13:12:01.981Z,32.50
2018-07-17T13:13:01.976Z,32.65
2018-07-17T13:14:01.958Z,32.43
2018-07-17T13:15:01.939Z,32.41
2018-07-17T13:16:01.915Z,32.52
2018-07-17T13:17:01.906Z,32.85
2018-07-17T13:18:01.870Z,32.51
2018-07-17T13:19:01.886Z,32.08
2018-07-17T13:20:01.852Z,32.37
2018-07-17T13:21:01.826Z,32.33
2018-07-17T13:22:01.791Z,32.23
2018-07-17T13:23:01.805Z,32.19
2018-07-17T13:24:01.749Z,31.62
2018-07-17T13:25:01.733Z,31.72
2018-07-17T13:26:01.719Z,31.47
2018-07-17T13:27:01.697Z,31.14
2018-07-17T13:28:01.692Z,30.84
2018-07-17T13:29:01.678Z,30.65
2018-07-17T13:30:01.636Z,30.53
2018-07-17T13:31:01.618Z,30.35
2018-07-17T13:32:01.605Z,30.42
2018-07-17T13:33:01.590Z,30.34
2018-07-17T13:34:01.583Z,30.37
2018-07-17T13:35:01.535Z,30.47
2018-07-17T13:36:01.531Z,30.91
2018-07-17T13:37:01.492Z,31.07
2018-07-17T13:38:01.486Z,30.88
2018-07-17T13:39:01.472Z,31.01
2018-07-17T13:40:01.443Z,31.02
2018-07-17T13:41:01.412Z,30.89
2018-07-17T13:42:01.402Z,30.64
2018-07-17T13:43:01.378Z,30.69
2018-07-17T13:44:01.397Z,30.64
2018-07-17T13:45:01.324Z,30.27
2018-07-17T13:46:01.301Z,30.16
2018-07-17T13:47:01.449Z,30.23
2018-07-17T13:48:01.359Z,30.55
2018-07-17T13:49:01.253Z,30.99
2018-07-17T13:50:01.273Z,30.72
2018-07-17T13:51:01.207Z,30.49
2018-07-17T13:52:01.196Z,30.22
2018-07-17T13:53:01.247Z,30.15
2018-07-17T13:54:01.144Z,30.08
2018-07-17T13:55:01.108Z,29.86
2018-07-17T13:56:01.088Z,29.58
2018-07-17T13:57:01.070Z,29.49
2018-07-17T13:58:01.054Z,29.49
2018-07-17T13:59:01.043Z,29.46
2018-07-17T14:00:01.102Z,29.41
2018-07-17T14:01:00.994Z,29.39
2018-07-17T14:02:00.992Z,29.58
2018-07-17T14:03:00.947Z,29.65
2018-07-17T14:04:01.987Z,29.76
2018-07-17T14:05:00.895Z,29.85
2018-07-17T14:06:00.874Z,30.07
2018-07-17T14:07:00.951Z,30.20
2018-07-17T14:08:00.857Z,30.27
2018-07-17T14:09:00.822Z,30.38
2018-07-17T14:10:00.800Z,30.47
2018-07-17T14:11:00.819Z,30.86
2018-07-17T14:12:00.809Z,31.57
2018-07-17T14:13:00.758Z,32.08
2018-07-17T14:14:00.704Z,32.43
2018-07-17T14:15:00.691Z,32.62
2018-07-17T14:16:00.653Z,32.96
2018-07-17T14:17:00.631Z,33.22
2018-07-17T14:18:00.603Z,32.96
2018-07-17T14:19:00.600Z,32.52
2018-07-17T14:20:00.562Z,32.44
2018-07-17T14:21:00.543Z,32.82
2018-07-17T14:22:00.534Z,33.12
2018-07-17T14:23:00.511Z,32.97
2018-07-17T14:24:00.465Z,32.77
2018-07-17T14:25:00.475Z,32.70
2018-07-17T14:26:00.443Z,32.89
2018-07-17T14:27:00.436Z,32.74
2018-07-17T14:28:00.397Z,32.38
2018-07-17T14:29:00.362Z,32.19
2018-07-17T14:30:00.358Z,31.75
2018-07-17T14:31:00.313Z,31.51
2018-07-17T14:32:00.371Z,31.41
2018-07-17T14:33:00.397Z,31.34
2018-07-17T14:34:00.361Z,31.38
2018-07-17T14:35:00.320Z,31.43
2018-07-17T14:36:00.225Z,31.56
2018-07-17T14:37:00.219Z,31.80
2018-07-17T14:38:00.193Z,32.18
2018-07-17T14:39:00.175Z,32.30
2018-07-17T14:40:00.153Z,32.66
2018-07-17T14:41:00.165Z,33.12
2018-07-17T14:42:00.110Z,33.51
2018-07-17T14:43:00.148Z,33.51